sensor_id;sensor_type;location;lat;lon;timestamp;P1;durP1;ratioP1;P2;durP2;ratioP2
13406;SDS011;6774;48.208;10.766;2022-11-20T00:01:07;2.53;;;2.33;;
13406;SDS011;6774;48.208;10.766;2022-11-20T00:03:36;2.83;;;2.63;;
13406;SDS011;6774;48.208;10.766;2022-11-20T00:06:05;5.17;;;2.47;;
13406;SDS011;6774;48.208;10.766;2022-11-20T00:08:34;2.37;;;2.20;;
13406;SDS011;6774;48.208;10.766;2022-11-20T00:11:05;2.53;;;2.00;;
13406;SDS011;6774;48.208;10.766;2022-11-20T00:13:41;6.60;;;2.50;;
13406;SDS011;6774;48.208;10.766;2022-11-20T00:16:10;1.23;;;1.20;;
13406;SDS011;6774;48.208;10.766;2022-11-20T00:18:39;1.53;;;1.43;;
13406;SDS011;6774;48.208;10.766;2022-11-20T00:21:09;5.17;;;1.90;;
13406;SDS011;6774;48.208;10.766;2022-11-20T00:23:38;1.70;;;1.60;;
13406;SDS011;6774;48.208;10.766;2022-11-20T00:26:09;2.93;;;2.73;;
13406;SDS011;6774;48.208;10.766;2022-11-20T00:28:38;4.50;;;2.13;;
13406;SDS011;6774;48.208;10.766;2022-11-20T00:31:07;2.33;;;2.13;;
13406;SDS011;6774;48.208;10.766;2022-11-20T00:33:36;2.23;;;2.13;;
13406;SDS011;6774;48.208;10.766;2022-11-20T00:36:05;2.10;;;1.90;;
13406;SDS011;6774;48.208;10.766;2022-11-20T00:38:35;1.93;;;1.83;;
13406;SDS011;6774;48.208;10.766;2022-11-20T00:41:04;3.03;;;1.60;;
13406;SDS011;6774;48.208;10.766;2022-11-20T00:43:34;2.07;;;1.97;;
13406;SDS011;6774;48.208;10.766;2022-11-20T00:46:02;3.03;;;2.83;;
13406;SDS011;6774;48.208;10.766;2022-11-20T00:48:32;2.23;;;2.13;;
13406;SDS011;6774;48.208;10.766;2022-11-20T00:51:00;2.43;;;2.33;;
13406;SDS011;6774;48.208;10.766;2022-11-20T00:53:28;4.30;;;3.90;;
13406;SDS011;6774;48.208;10.766;2022-11-20T00:55:57;1.80;;;1.70;;
13406;SDS011;6774;48.208;10.766;2022-11-20T00:58:28;2.27;;;2.00;;
13406;SDS011;6774;48.208;10.766;2022-11-20T01:01:01;1.70;;;1.60;;
13406;SDS011;6774;48.208;10.766;2022-11-20T01:03:30;1.70;;;1.60;;
13406;SDS011;6774;48.208;10.766;2022-11-20T01:06:00;2.73;;;2.53;;
13406;SDS011;6774;48.208;10.766;2022-11-20T01:08:29;2.07;;;1.97;;
13406;SDS011;6774;48.208;10.766;2022-11-20T01:10:59;2.33;;;2.13;;
13406;SDS011;6774;48.208;10.766;2022-11-20T01:13:28;2.03;;;1.93;;
13406;SDS011;6774;48.208;10.766;2022-11-20T01:16:08;3.27;;;2.97;;
13406;SDS011;6774;48.208;10.766;2022-11-20T01:18:38;2.13;;;1.67;;
13406;SDS011;6774;48.208;10.766;2022-11-20T01:21:09;2.63;;;2.47;;
13406;SDS011;6774;48.208;10.766;2022-11-20T01:23:38;2.50;;;2.30;;
13406;SDS011;6774;48.208;10.766;2022-11-20T01:26:08;2.63;;;2.47;;
13406;SDS011;6774;48.208;10.766;2022-11-20T01:28:38;2.60;;;2.40;;
13406;SDS011;6774;48.208;10.766;2022-11-20T01:31:14;2.57;;;2.37;;
13406;SDS011;6774;48.208;10.766;2022-11-20T01:33:45;2.33;;;2.20;;
13406;SDS011;6774;48.208;10.766;2022-11-20T01:36:14;3.23;;;2.33;;
13406;SDS011;6774;48.208;10.766;2022-11-20T01:38:43;2.33;;;2.13;;
13406;SDS011;6774;48.208;10.766;2022-11-20T01:41:11;3.37;;;3.20;;
13406;SDS011;6774;48.208;10.766;2022-11-20T01:44:01;2.93;;;2.73;;
13406;SDS011;6774;48.208;10.766;2022-11-20T01:46:30;3.03;;;2.70;;
13406;SDS011;6774;48.208;10.766;2022-11-20T01:48:59;2.73;;;2.53;;
13406;SDS011;6774;48.208;10.766;2022-11-20T01:51:31;2.77;;;2.53;;
13406;SDS011;6774;48.208;10.766;2022-11-20T01:54:05;2.73;;;2.53;;
13406;SDS011;6774;48.208;10.766;2022-11-20T01:56:36;4.53;;;2.83;;
13406;SDS011;6774;48.208;10.766;2022-11-20T01:59:08;3.37;;;2.03;;
13406;SDS011;6774;48.208;10.766;2022-11-20T02:01:39;3.33;;;3.13;;
13406;SDS011;6774;48.208;10.766;2022-11-20T02:04:07;3.10;;;2.90;;
13406;SDS011;6774;48.208;10.766;2022-11-20T02:06:38;3.67;;;2.67;;
13406;SDS011;6774;48.208;10.766;2022-11-20T02:09:10;3.87;;;3.57;;
13406;SDS011;6774;48.208;10.766;2022-11-20T02:11:38;2.60;;;2.40;;
13406;SDS011;6774;48.208;10.766;2022-11-20T02:14:06;2.50;;;2.40;;
13406;SDS011;6774;48.208;10.766;2022-11-20T02:16:34;2.77;;;2.57;;
13406;SDS011;6774;48.208;10.766;2022-11-20T02:19:06;1.73;;;1.63;;
13406;SDS011;6774;48.208;10.766;2022-11-20T02:21:39;3.00;;;2.83;;
13406;SDS011;6774;48.208;10.766;2022-11-20T02:24:12;1.90;;;1.80;;
13406;SDS011;6774;48.208;10.766;2022-11-20T02:26:44;3.13;;;2.93;;
13406;SDS011;6774;48.208;10.766;2022-11-20T02:29:17;2.93;;;2.73;;
13406;SDS011;6774;48.208;10.766;2022-11-20T02:31:50;2.10;;;2.00;;
13406;SDS011;6774;48.208;10.766;2022-11-20T02:34:18;2.40;;;2.30;;
13406;SDS011;6774;48.208;10.766;2022-11-20T02:36:46;3.40;;;3.13;;
13406;SDS011;6774;48.208;10.766;2022-11-20T02:39:17;2.10;;;2.00;;
13406;SDS011;6774;48.208;10.766;2022-11-20T02:41:48;2.87;;;2.67;;
13406;SDS011;6774;48.208;10.766;2022-11-20T02:44:16;3.00;;;2.80;;
13406;SDS011;6774;48.208;10.766;2022-11-20T02:46:44;2.40;;;2.20;;
13406;SDS011;6774;48.208;10.766;2022-11-20T02:49:12;1.87;;;1.77;;
13406;SDS011;6774;48.208;10.766;2022-11-20T02:51:40;1.73;;;1.63;;
13406;SDS011;6774;48.208;10.766;2022-11-20T02:54:08;3.07;;;2.87;;
13406;SDS011;6774;48.208;10.766;2022-11-20T02:56:38;3.73;;;2.90;;
13406;SDS011;6774;48.208;10.766;2022-11-20T02:59:07;2.20;;;2.10;;
13406;SDS011;6774;48.208;10.766;2022-11-20T03:01:35;2.57;;;2.40;;
13406;SDS011;6774;48.208;10.766;2022-11-20T03:04:03;1.93;;;1.83;;
13406;SDS011;6774;48.208;10.766;2022-11-20T03:06:31;1.53;;;1.43;;
13406;SDS011;6774;48.208;10.766;2022-11-20T03:08:59;2.70;;;2.10;;
13406;SDS011;6774;48.208;10.766;2022-11-20T03:11:27;1.90;;;1.80;;
13406;SDS011;6774;48.208;10.766;2022-11-20T03:13:57;2.40;;;2.20;;
13406;SDS011;6774;48.208;10.766;2022-11-20T03:16:25;2.90;;;2.57;;
13406;SDS011;6774;48.208;10.766;2022-11-20T03:18:53;2.03;;;1.93;;
13406;SDS011;6774;48.208;10.766;2022-11-20T03:21:21;4.23;;;3.57;;
13406;SDS011;6774;48.208;10.766;2022-11-20T03:23:49;2.80;;;2.60;;
13406;SDS011;6774;48.208;10.766;2022-11-20T03:26:18;2.93;;;2.73;;
13406;SDS011;6774;48.208;10.766;2022-11-20T03:28:48;3.03;;;2.73;;
13406;SDS011;6774;48.208;10.766;2022-11-20T03:31:19;3.17;;;2.67;;
13406;SDS011;6774;48.208;10.766;2022-11-20T03:33:48;2.33;;;2.23;;
13406;SDS011;6774;48.208;10.766;2022-11-20T03:36:17;2.63;;;1.80;;
13406;SDS011;6774;48.208;10.766;2022-11-20T03:38:46;3.17;;;2.40;;
13406;SDS011;6774;48.208;10.766;2022-11-20T03:41:16;2.70;;;2.50;;
13406;SDS011;6774;48.208;10.766;2022-11-20T03:43:46;2.10;;;2.00;;
13406;SDS011;6774;48.208;10.766;2022-11-20T03:46:19;2.17;;;1.97;;
13406;SDS011;6774;48.208;10.766;2022-11-20T03:48:50;2.37;;;2.17;;
13406;SDS011;6774;48.208;10.766;2022-11-20T03:51:21;2.90;;;2.70;;
13406;SDS011;6774;48.208;10.766;2022-11-20T03:53:51;2.90;;;2.80;;
13406;SDS011;6774;48.208;10.766;2022-11-20T03:56:23;4.60;;;2.80;;
13406;SDS011;6774;48.208;10.766;2022-11-20T03:58:52;3.37;;;2.80;;
13406;SDS011;6774;48.208;10.766;2022-11-20T04:01:23;3.17;;;2.97;;
13406;SDS011;6774;48.208;10.766;2022-11-20T04:03:53;2.40;;;2.20;;
13406;SDS011;6774;48.208;10.766;2022-11-20T04:06:22;5.83;;;2.00;;
13406;SDS011;6774;48.208;10.766;2022-11-20T04:08:53;1.90;;;1.70;;
13406;SDS011;6774;48.208;10.766;2022-11-20T04:11:23;2.50;;;2.37;;
13406;SDS011;6774;48.208;10.766;2022-11-20T04:13:52;4.37;;;2.53;;
13406;SDS011;6774;48.208;10.766;2022-11-20T04:16:23;1.93;;;1.83;;
13406;SDS011;6774;48.208;10.766;2022-11-20T04:18:53;1.60;;;1.47;;
13406;SDS011;6774;48.208;10.766;2022-11-20T04:21:22;2.00;;;1.90;;
13406;SDS011;6774;48.208;10.766;2022-11-20T04:23:51;2.60;;;2.40;;
13406;SDS011;6774;48.208;10.766;2022-11-20T04:26:20;3.60;;;3.30;;
13406;SDS011;6774;48.208;10.766;2022-11-20T04:28:49;2.40;;;2.23;;
13406;SDS011;6774;48.208;10.766;2022-11-20T04:31:18;2.37;;;2.00;;
13406;SDS011;6774;48.208;10.766;2022-11-20T04:33:49;1.67;;;1.57;;
13406;SDS011;6774;48.208;10.766;2022-11-20T04:36:18;2.17;;;2.00;;
13406;SDS011;6774;48.208;10.766;2022-11-20T04:38:49;1.90;;;1.80;;
13406;SDS011;6774;48.208;10.766;2022-11-20T04:41:23;2.00;;;1.90;;
13406;SDS011;6774;48.208;10.766;2022-11-20T04:43:53;2.13;;;2.03;;
13406;SDS011;6774;48.208;10.766;2022-11-20T04:46:25;2.03;;;1.93;;
13406;SDS011;6774;48.208;10.766;2022-11-20T04:48:56;3.80;;;3.50;;
13406;SDS011;6774;48.208;10.766;2022-11-20T04:51:23;2.30;;;2.20;;
13406;SDS011;6774;48.208;10.766;2022-11-20T04:53:52;2.20;;;2.10;;
13406;SDS011;6774;48.208;10.766;2022-11-20T04:56:19;1.53;;;1.43;;
13406;SDS011;6774;48.208;10.766;2022-11-20T04:58:47;1.67;;;1.57;;
13406;SDS011;6774;48.208;10.766;2022-11-20T05:01:16;6.97;;;3.50;;
13406;SDS011;6774;48.208;10.766;2022-11-20T05:03:45;2.00;;;1.07;;
13406;SDS011;6774;48.208;10.766;2022-11-20T05:06:16;2.13;;;2.00;;
13406;SDS011;6774;48.208;10.766;2022-11-20T05:08:45;2.00;;;1.90;;
13406;SDS011;6774;48.208;10.766;2022-11-20T05:11:15;1.77;;;1.67;;
13406;SDS011;6774;48.208;10.766;2022-11-20T05:13:44;2.93;;;1.77;;
13406;SDS011;6774;48.208;10.766;2022-11-20T05:16:12;2.13;;;2.03;;
13406;SDS011;6774;48.208;10.766;2022-11-20T05:18:42;1.53;;;1.43;;
13406;SDS011;6774;48.208;10.766;2022-11-20T05:21:10;6.90;;;2.57;;
13406;SDS011;6774;48.208;10.766;2022-11-20T05:23:41;1.87;;;1.20;;
13406;SDS011;6774;48.208;10.766;2022-11-20T05:26:12;1.53;;;1.43;;
13406;SDS011;6774;48.208;10.766;2022-11-20T05:28:41;1.60;;;1.50;;
13406;SDS011;6774;48.208;10.766;2022-11-20T05:31:09;1.83;;;1.73;;
13406;SDS011;6774;48.208;10.766;2022-11-20T05:33:40;1.40;;;1.30;;
13406;SDS011;6774;48.208;10.766;2022-11-20T05:36:09;1.70;;;1.60;;
13406;SDS011;6774;48.208;10.766;2022-11-20T05:38:37;1.57;;;1.47;;
13406;SDS011;6774;48.208;10.766;2022-11-20T05:41:08;1.37;;;1.27;;
13406;SDS011;6774;48.208;10.766;2022-11-20T05:43:38;1.80;;;1.70;;
13406;SDS011;6774;48.208;10.766;2022-11-20T05:46:08;3.63;;;2.37;;
13406;SDS011;6774;48.208;10.766;2022-11-20T05:48:37;1.57;;;1.47;;
13406;SDS011;6774;48.208;10.766;2022-11-20T05:51:07;1.97;;;1.77;;
13406;SDS011;6774;48.208;10.766;2022-11-20T05:53:40;1.80;;;1.70;;
13406;SDS011;6774;48.208;10.766;2022-11-20T05:56:15;1.60;;;1.50;;
13406;SDS011;6774;48.208;10.766;2022-11-20T05:58:44;1.80;;;1.70;;
13406;SDS011;6774;48.208;10.766;2022-11-20T06:01:12;1.03;;;0.93;;
13406;SDS011;6774;48.208;10.766;2022-11-20T06:03:42;2.13;;;1.93;;
13406;SDS011;6774;48.208;10.766;2022-11-20T06:06:12;2.20;;;2.10;;
13406;SDS011;6774;48.208;10.766;2022-11-20T06:08:41;2.80;;;2.70;;
13406;SDS011;6774;48.208;10.766;2022-11-20T06:11:10;2.57;;;2.33;;
13406;SDS011;6774;48.208;10.766;2022-11-20T06:13:41;2.50;;;2.30;;
13406;SDS011;6774;48.208;10.766;2022-11-20T06:16:10;2.20;;;2.10;;
13406;SDS011;6774;48.208;10.766;2022-11-20T06:18:39;2.00;;;1.60;;
13406;SDS011;6774;48.208;10.766;2022-11-20T06:21:07;1.87;;;1.77;;
13406;SDS011;6774;48.208;10.766;2022-11-20T06:23:37;1.77;;;1.67;;
13406;SDS011;6774;48.208;10.766;2022-11-20T06:26:05;2.43;;;2.23;;
13406;SDS011;6774;48.208;10.766;2022-11-20T06:28:35;1.90;;;1.80;;
13406;SDS011;6774;48.208;10.766;2022-11-20T06:31:05;1.93;;;1.83;;
13406;SDS011;6774;48.208;10.766;2022-11-20T06:33:33;2.13;;;2.03;;
13406;SDS011;6774;48.208;10.766;2022-11-20T06:36:01;2.33;;;2.23;;
13406;SDS011;6774;48.208;10.766;2022-11-20T06:38:36;2.60;;;2.43;;
13406;SDS011;6774;48.208;10.766;2022-11-20T06:41:05;3.07;;;2.77;;
13406;SDS011;6774;48.208;10.766;2022-11-20T06:43:33;2.37;;;2.17;;
13406;SDS011;6774;48.208;10.766;2022-11-20T06:46:01;2.77;;;1.90;;
13406;SDS011;6774;48.208;10.766;2022-11-20T06:48:30;2.17;;;2.03;;
13406;SDS011;6774;48.208;10.766;2022-11-20T06:50:58;1.87;;;1.77;;
13406;SDS011;6774;48.208;10.766;2022-11-20T06:53:26;2.87;;;2.77;;
13406;SDS011;6774;48.208;10.766;2022-11-20T06:55:55;1.83;;;1.73;;
13406;SDS011;6774;48.208;10.766;2022-11-20T06:58:25;1.90;;;1.80;;
13406;SDS011;6774;48.208;10.766;2022-11-20T07:00:57;1.67;;;1.57;;
13406;SDS011;6774;48.208;10.766;2022-11-20T07:03:25;1.90;;;1.80;;
13406;SDS011;6774;48.208;10.766;2022-11-20T07:05:55;1.83;;;1.73;;
13406;SDS011;6774;48.208;10.766;2022-11-20T07:08:24;1.63;;;1.53;;
13406;SDS011;6774;48.208;10.766;2022-11-20T07:10:52;2.00;;;1.80;;
13406;SDS011;6774;48.208;10.766;2022-11-20T07:13:23;2.17;;;2.00;;
13406;SDS011;6774;48.208;10.766;2022-11-20T07:15:52;1.97;;;1.87;;
13406;SDS011;6774;48.208;10.766;2022-11-20T07:18:20;2.00;;;1.90;;
13406;SDS011;6774;48.208;10.766;2022-11-20T07:20:48;2.87;;;2.67;;
13406;SDS011;6774;48.208;10.766;2022-11-20T07:23:17;1.90;;;1.80;;
13406;SDS011;6774;48.208;10.766;2022-11-20T07:25:45;1.63;;;1.53;;
13406;SDS011;6774;48.208;10.766;2022-11-20T07:28:13;2.97;;;2.77;;
13406;SDS011;6774;48.208;10.766;2022-11-20T07:30:41;1.97;;;1.63;;
13406;SDS011;6774;48.208;10.766;2022-11-20T07:33:09;4.30;;;3.87;;
13406;SDS011;6774;48.208;10.766;2022-11-20T07:35:37;2.53;;;2.33;;
13406;SDS011;6774;48.208;10.766;2022-11-20T07:38:05;2.93;;;2.73;;
13406;SDS011;6774;48.208;10.766;2022-11-20T07:40:35;2.43;;;2.30;;
13406;SDS011;6774;48.208;10.766;2022-11-20T07:43:03;2.83;;;2.63;;
13406;SDS011;6774;48.208;10.766;2022-11-20T07:45:31;3.17;;;2.97;;
13406;SDS011;6774;48.208;10.766;2022-11-20T07:47:58;3.07;;;2.87;;
13406;SDS011;6774;48.208;10.766;2022-11-20T07:50:26;3.37;;;3.07;;
13406;SDS011;6774;48.208;10.766;2022-11-20T07:52:59;4.03;;;3.73;;
13406;SDS011;6774;48.208;10.766;2022-11-20T07:55:30;3.10;;;2.80;;
13406;SDS011;6774;48.208;10.766;2022-11-20T07:57:59;1.87;;;1.77;;
13406;SDS011;6774;48.208;10.766;2022-11-20T08:00:27;2.40;;;2.20;;
13406;SDS011;6774;48.208;10.766;2022-11-20T08:02:55;2.60;;;2.40;;
13406;SDS011;6774;48.208;10.766;2022-11-20T08:05:23;4.23;;;2.43;;
13406;SDS011;6774;48.208;10.766;2022-11-20T08:07:51;2.93;;;2.67;;
13406;SDS011;6774;48.208;10.766;2022-11-20T08:10:19;2.07;;;1.97;;
13406;SDS011;6774;48.208;10.766;2022-11-20T08:12:48;3.33;;;3.03;;
13406;SDS011;6774;48.208;10.766;2022-11-20T08:15:36;2.10;;;2.00;;
13406;SDS011;6774;48.208;10.766;2022-11-20T08:18:05;4.17;;;3.10;;
13406;SDS011;6774;48.208;10.766;2022-11-20T08:20:54;1.53;;;1.37;;
13406;SDS011;6774;48.208;10.766;2022-11-20T08:23:22;2.43;;;2.23;;
13406;SDS011;6774;48.208;10.766;2022-11-20T08:25:50;2.63;;;2.43;;
13406;SDS011;6774;48.208;10.766;2022-11-20T08:28:18;1.63;;;1.53;;
13406;SDS011;6774;48.208;10.766;2022-11-20T08:30:49;1.87;;;1.77;;
13406;SDS011;6774;48.208;10.766;2022-11-20T08:33:17;1.53;;;1.43;;
13406;SDS011;6774;48.208;10.766;2022-11-20T08:35:45;2.57;;;2.37;;
13406;SDS011;6774;48.208;10.766;2022-11-20T08:38:13;2.40;;;2.23;;
13406;SDS011;6774;48.208;10.766;2022-11-20T08:40:41;2.70;;;2.50;;
13406;SDS011;6774;48.208;10.766;2022-11-20T08:43:29;1.50;;;1.30;;
13406;SDS011;6774;48.208;10.766;2022-11-20T08:45:58;2.17;;;2.07;;
13406;SDS011;6774;48.208;10.766;2022-11-20T08:48:26;2.07;;;1.97;;
13406;SDS011;6774;48.208;10.766;2022-11-20T08:50:57;2.43;;;1.80;;
13406;SDS011;6774;48.208;10.766;2022-11-20T08:53:25;1.80;;;1.70;;
13406;SDS011;6774;48.208;10.766;2022-11-20T08:55:53;1.73;;;1.63;;
13406;SDS011;6774;48.208;10.766;2022-11-20T08:58:21;1.73;;;1.63;;
13406;SDS011;6774;48.208;10.766;2022-11-20T09:00:49;1.80;;;1.47;;
13406;SDS011;6774;48.208;10.766;2022-11-20T09:03:18;1.60;;;1.50;;
13406;SDS011;6774;48.208;10.766;2022-11-20T09:05:46;2.87;;;1.73;;
13406;SDS011;6774;48.208;10.766;2022-11-20T09:08:14;0.97;;;0.80;;
13406;SDS011;6774;48.208;10.766;2022-11-20T09:10:42;1.83;;;1.70;;
13406;SDS011;6774;48.208;10.766;2022-11-20T09:13:10;1.70;;;1.60;;
13406;SDS011;6774;48.208;10.766;2022-11-20T09:15:38;2.57;;;2.30;;
13406;SDS011;6774;48.208;10.766;2022-11-20T09:18:05;2.40;;;1.17;;
13406;SDS011;6774;48.208;10.766;2022-11-20T09:20:34;1.60;;;1.50;;
13406;SDS011;6774;48.208;10.766;2022-11-20T09:23:03;1.43;;;1.33;;
13406;SDS011;6774;48.208;10.766;2022-11-20T09:25:31;1.63;;;1.37;;
13406;SDS011;6774;48.208;10.766;2022-11-20T09:27:59;0.83;;;0.83;;
13406;SDS011;6774;48.208;10.766;2022-11-20T09:30:27;1.73;;;1.53;;
13406;SDS011;6774;48.208;10.766;2022-11-20T09:32:54;1.50;;;1.40;;
13406;SDS011;6774;48.208;10.766;2022-11-20T09:35:23;3.57;;;1.60;;
13406;SDS011;6774;48.208;10.766;2022-11-20T09:37:52;1.33;;;1.17;;
13406;SDS011;6774;48.208;10.766;2022-11-20T09:40:20;1.63;;;1.53;;
13406;SDS011;6774;48.208;10.766;2022-11-20T09:42:51;2.67;;;2.50;;
13406;SDS011;6774;48.208;10.766;2022-11-20T09:45:30;1.33;;;1.20;;
13406;SDS011;6774;48.208;10.766;2022-11-20T09:48:14;1.33;;;1.23;;
13406;SDS011;6774;48.208;10.766;2022-11-20T09:50:56;3.17;;;1.80;;
13406;SDS011;6774;48.208;10.766;2022-11-20T09:53:35;2.10;;;2.00;;
13406;SDS011;6774;48.208;10.766;2022-11-20T09:56:13;1.07;;;1.00;;
13406;SDS011;6774;48.208;10.766;2022-11-20T09:58:47;1.43;;;1.00;;
13406;SDS011;6774;48.208;10.766;2022-11-20T10:01:18;1.70;;;0.67;;
13406;SDS011;6774;48.208;10.766;2022-11-20T10:03:50;0.87;;;0.60;;
13406;SDS011;6774;48.208;10.766;2022-11-20T10:06:24;0.73;;;0.73;;
13406;SDS011;6774;48.208;10.766;2022-11-20T10:09:03;2.37;;;1.67;;
13406;SDS011;6774;48.208;10.766;2022-11-20T10:11:46;3.00;;;1.00;;
13406;SDS011;6774;48.208;10.766;2022-11-20T10:14:23;1.23;;;1.10;;
13406;SDS011;6774;48.208;10.766;2022-11-20T10:16:59;0.87;;;0.87;;
13406;SDS011;6774;48.208;10.766;2022-11-20T10:19:35;1.43;;;0.87;;
13406;SDS011;6774;48.208;10.766;2022-11-20T10:22:17;1.90;;;1.80;;
13406;SDS011;6774;48.208;10.766;2022-11-20T10:24:56;2.60;;;1.20;;
13406;SDS011;6774;48.208;10.766;2022-11-20T10:30:30;0.83;;;0.70;;
13406;SDS011;6774;48.208;10.766;2022-11-20T10:33:05;1.33;;;1.07;;
13406;SDS011;6774;48.208;10.766;2022-11-20T10:35:41;0.80;;;0.80;;
13406;SDS011;6774;48.208;10.766;2022-11-20T10:38:14;3.33;;;1.33;;
13406;SDS011;6774;48.208;10.766;2022-11-20T10:40:50;0.80;;;0.73;;
13406;SDS011;6774;48.208;10.766;2022-11-20T10:43:41;1.07;;;1.07;;
13406;SDS011;6774;48.208;10.766;2022-11-20T10:46:10;1.07;;;0.97;;
13406;SDS011;6774;48.208;10.766;2022-11-20T10:48:44;0.40;;;0.37;;
13406;SDS011;6774;48.208;10.766;2022-11-20T10:51:16;1.03;;;0.97;;
13406;SDS011;6774;48.208;10.766;2022-11-20T10:53:55;0.47;;;0.40;;
13406;SDS011;6774;48.208;10.766;2022-11-20T10:56:31;0.77;;;0.67;;
13406;SDS011;6774;48.208;10.766;2022-11-20T10:59:15;1.50;;;0.50;;
13406;SDS011;6774;48.208;10.766;2022-11-20T11:01:55;0.70;;;0.70;;
13406;SDS011;6774;48.208;10.766;2022-11-20T11:04:30;0.87;;;0.87;;
13406;SDS011;6774;48.208;10.766;2022-11-20T11:07:06;4.73;;;0.50;;
13406;SDS011;6774;48.208;10.766;2022-11-20T11:09:39;0.87;;;0.77;;
13406;SDS011;6774;48.208;10.766;2022-11-20T11:12:11;2.53;;;1.53;;
13406;SDS011;6774;48.208;10.766;2022-11-20T11:14:44;2.50;;;1.50;;
13406;SDS011;6774;48.208;10.766;2022-11-20T11:17:18;1.47;;;0.70;;
13406;SDS011;6774;48.208;10.766;2022-11-20T11:19:57;8.50;;;2.00;;
13406;SDS011;6774;48.208;10.766;2022-11-20T11:22:29;0.60;;;0.50;;
13406;SDS011;6774;48.208;10.766;2022-11-20T11:24:58;1.97;;;0.50;;
13406;SDS011;6774;48.208;10.766;2022-11-20T11:27:28;0.50;;;0.50;;
13406;SDS011;6774;48.208;10.766;2022-11-20T11:30:10;0.30;;;0.30;;
13406;SDS011;6774;48.208;10.766;2022-11-20T11:32:40;0.80;;;0.53;;
13406;SDS011;6774;48.208;10.766;2022-11-20T11:35:18;2.73;;;2.53;;
13406;SDS011;6774;48.208;10.766;2022-11-20T11:37:48;0.43;;;0.30;;
13406;SDS011;6774;48.208;10.766;2022-11-20T11:40:17;0.40;;;0.40;;
13406;SDS011;6774;48.208;10.766;2022-11-20T11:42:54;0.60;;;0.50;;
13406;SDS011;6774;48.208;10.766;2022-11-20T11:45:24;1.63;;;1.00;;
13406;SDS011;6774;48.208;10.766;2022-11-20T11:47:53;0.50;;;0.50;;
13406;SDS011;6774;48.208;10.766;2022-11-20T11:50:24;0.60;;;0.60;;
13406;SDS011;6774;48.208;10.766;2022-11-20T11:52:55;0.20;;;0.20;;
13406;SDS011;6774;48.208;10.766;2022-11-20T11:55:29;0.50;;;0.47;;
13406;SDS011;6774;48.208;10.766;2022-11-20T11:58:14;0.80;;;0.80;;
13406;SDS011;6774;48.208;10.766;2022-11-20T12:00:49;0.67;;;0.67;;
13406;SDS011;6774;48.208;10.766;2022-11-20T12:03:24;1.67;;;1.57;;
13406;SDS011;6774;48.208;10.766;2022-11-20T12:05:56;2.57;;;0.50;;
13406;SDS011;6774;48.208;10.766;2022-11-20T12:08:27;1.10;;;0.73;;
13406;SDS011;6774;48.208;10.766;2022-11-20T12:11:02;0.60;;;0.60;;
13406;SDS011;6774;48.208;10.766;2022-11-20T12:13:42;0.70;;;0.70;;
13406;SDS011;6774;48.208;10.766;2022-11-20T12:16:17;1.80;;;1.00;;
13406;SDS011;6774;48.208;10.766;2022-11-20T12:18:48;1.80;;;0.77;;
13406;SDS011;6774;48.208;10.766;2022-11-20T12:21:18;0.67;;;0.67;;
13406;SDS011;6774;48.208;10.766;2022-11-20T12:23:52;1.60;;;0.43;;
13406;SDS011;6774;48.208;10.766;2022-11-20T12:26:35;1.17;;;1.07;;
13406;SDS011;6774;48.208;10.766;2022-11-20T12:29:15;1.27;;;0.93;;
13406;SDS011;6774;48.208;10.766;2022-11-20T12:32:06;1.87;;;1.57;;
13406;SDS011;6774;48.208;10.766;2022-11-20T12:34:55;1.53;;;0.93;;
13406;SDS011;6774;48.208;10.766;2022-11-20T12:37:38;3.40;;;3.10;;
13406;SDS011;6774;48.208;10.766;2022-11-20T12:40:21;0.87;;;0.83;;
13406;SDS011;6774;48.208;10.766;2022-11-20T12:42:58;1.00;;;0.93;;
13406;SDS011;6774;48.208;10.766;2022-11-20T12:45:59;1.10;;;0.97;;
13406;SDS011;6774;48.208;10.766;2022-11-20T12:48:42;1.47;;;1.37;;
13406;SDS011;6774;48.208;10.766;2022-11-20T12:54:26;0.80;;;0.80;;
13406;SDS011;6774;48.208;10.766;2022-11-20T12:57:06;1.27;;;1.17;;
13406;SDS011;6774;48.208;10.766;2022-11-20T12:59:47;1.30;;;0.93;;
13406;SDS011;6774;48.208;10.766;2022-11-20T13:02:27;0.53;;;0.53;;
13406;SDS011;6774;48.208;10.766;2022-11-20T13:05:15;0.93;;;0.70;;
13406;SDS011;6774;48.208;10.766;2022-11-20T13:07:47;11.13;;;2.27;;
13406;SDS011;6774;48.208;10.766;2022-11-20T13:10:20;0.67;;;0.63;;
13406;SDS011;6774;48.208;10.766;2022-11-20T13:12:55;1.07;;;0.97;;
13406;SDS011;6774;48.208;10.766;2022-11-20T13:15:32;0.93;;;0.50;;
13406;SDS011;6774;48.208;10.766;2022-11-20T13:18:08;1.17;;;1.03;;
13406;SDS011;6774;48.208;10.766;2022-11-20T13:20:41;1.33;;;0.67;;
13406;SDS011;6774;48.208;10.766;2022-11-20T13:23:10;1.53;;;0.77;;
13406;SDS011;6774;48.208;10.766;2022-11-20T13:25:38;2.53;;;0.80;;
13406;SDS011;6774;48.208;10.766;2022-11-20T13:30:57;0.97;;;0.97;;
13406;SDS011;6774;48.208;10.766;2022-11-20T13:33:28;0.50;;;0.50;;
13406;SDS011;6774;48.208;10.766;2022-11-20T13:35:59;3.23;;;0.70;;
13406;SDS011;6774;48.208;10.766;2022-11-20T13:38:39;2.43;;;0.70;;
13406;SDS011;6774;48.208;10.766;2022-11-20T13:41:10;0.93;;;0.93;;
13406;SDS011;6774;48.208;10.766;2022-11-20T13:43:59;1.40;;;1.33;;
13406;SDS011;6774;48.208;10.766;2022-11-20T13:46:35;3.40;;;1.40;;
13406;SDS011;6774;48.208;10.766;2022-11-20T13:49:10;0.70;;;0.70;;
13406;SDS011;6774;48.208;10.766;2022-11-20T13:51:49;0.47;;;0.40;;
13406;SDS011;6774;48.208;10.766;2022-11-20T13:54:41;0.70;;;0.60;;
13406;SDS011;6774;48.208;10.766;2022-11-20T13:57:28;0.50;;;0.50;;
13406;SDS011;6774;48.208;10.766;2022-11-20T14:00:11;2.10;;;0.60;;
13406;SDS011;6774;48.208;10.766;2022-11-20T14:02:41;0.83;;;0.67;;
13406;SDS011;6774;48.208;10.766;2022-11-20T14:05:16;1.73;;;0.80;;
13406;SDS011;6774;48.208;10.766;2022-11-20T14:07:48;0.53;;;0.50;;
13406;SDS011;6774;48.208;10.766;2022-11-20T14:10:22;1.27;;;0.40;;
13406;SDS011;6774;48.208;10.766;2022-11-20T14:12:57;1.13;;;1.03;;
13406;SDS011;6774;48.208;10.766;2022-11-20T14:15:27;1.03;;;0.70;;
13406;SDS011;6774;48.208;10.766;2022-11-20T14:17:56;0.43;;;0.40;;
13406;SDS011;6774;48.208;10.766;2022-11-20T14:20:27;1.03;;;1.00;;
13406;SDS011;6774;48.208;10.766;2022-11-20T14:22:57;2.53;;;1.10;;
13406;SDS011;6774;48.208;10.766;2022-11-20T14:25:25;0.77;;;0.70;;
13406;SDS011;6774;48.208;10.766;2022-11-20T14:27:54;1.33;;;1.23;;
13406;SDS011;6774;48.208;10.766;2022-11-20T14:30:25;0.53;;;0.50;;
13406;SDS011;6774;48.208;10.766;2022-11-20T14:32:54;0.67;;;0.67;;
13406;SDS011;6774;48.208;10.766;2022-11-20T14:35:27;0.40;;;0.40;;
13406;SDS011;6774;48.208;10.766;2022-11-20T14:37:56;0.60;;;0.60;;
13406;SDS011;6774;48.208;10.766;2022-11-20T14:40:26;0.30;;;0.30;;
13406;SDS011;6774;48.208;10.766;2022-11-20T14:42:56;0.20;;;0.20;;
13406;SDS011;6774;48.208;10.766;2022-11-20T14:45:25;0.30;;;0.20;;
13406;SDS011;6774;48.208;10.766;2022-11-20T14:47:55;0.70;;;0.30;;
13406;SDS011;6774;48.208;10.766;2022-11-20T14:50:27;0.40;;;0.27;;
13406;SDS011;6774;48.208;10.766;2022-11-20T14:52:56;0.37;;;0.30;;
13406;SDS011;6774;48.208;10.766;2022-11-20T14:55:26;0.47;;;0.40;;
13406;SDS011;6774;48.208;10.766;2022-11-20T14:57:56;0.47;;;0.43;;
13406;SDS011;6774;48.208;10.766;2022-11-20T15:00:25;0.33;;;0.20;;
13406;SDS011;6774;48.208;10.766;2022-11-20T15:02:53;0.53;;;0.40;;
13406;SDS011;6774;48.208;10.766;2022-11-20T15:05:21;1.33;;;0.30;;
13406;SDS011;6774;48.208;10.766;2022-11-20T15:08:03;0.27;;;0.27;;
13406;SDS011;6774;48.208;10.766;2022-11-20T15:10:33;0.20;;;0.20;;
13406;SDS011;6774;48.208;10.766;2022-11-20T15:13:03;0.40;;;0.40;;
13406;SDS011;6774;48.208;10.766;2022-11-20T15:15:39;0.47;;;0.37;;
13406;SDS011;6774;48.208;10.766;2022-11-20T15:18:13;0.40;;;0.30;;
13406;SDS011;6774;48.208;10.766;2022-11-20T15:20:43;0.60;;;0.40;;
13406;SDS011;6774;48.208;10.766;2022-11-20T15:23:15;0.20;;;0.20;;